createdAt,value
2023-01-02T00:00:21.000Z,10.74
2023-01-02T00:01:21.000Z,10.75
2023-01-02T00:02:21.000Z,10.77
2023-01-02T00:03:20.000Z,10.75
2023-01-02T00:04:20.000Z,10.75
2023-01-02T00:05:20.000Z,10.74
2023-01-02T00:06:21.000Z,10.72
2023-01-02T00:07:20.000Z,10.72
2023-01-02T00:08:20.000Z,10.74
2023-01-02T00:09:20.000Z,10.72
2023-01-02T00:10:20.000Z,10.75
2023-01-02T00:11:20.000Z,10.74
2023-01-02T00:12:20.000Z,10.72
2023-01-02T00:13:20.000Z,10.72
2023-01-02T00:14:20.000Z,10.74
2023-01-02T00:15:20.000Z,10.74
2023-01-02T00:16:21.000Z,10.72
2023-01-02T00:17:20.000Z,10.74
2023-01-02T00:18:20.000Z,10.74
2023-01-02T00:19:20.000Z,10.71
2023-01-02T00:20:20.000Z,10.72
2023-01-02T00:21:20.000Z,10.71
2023-01-02T00:22:21.000Z,10.72
2023-01-02T00:23:20.000Z,10.72
2023-01-02T00:24:21.000Z,10.72
2023-01-02T00:25:20.000Z,10.72
2023-01-02T00:26:20.000Z,10.74
2023-01-02T00:27:20.000Z,10.72
2023-01-02T00:28:20.000Z,10.72
2023-01-02T00:29:20.000Z,10.74
2023-01-02T00:30:20.000Z,10.72
2023-01-02T00:31:20.000Z,10.72
2023-01-02T00:32:20.000Z,10.72
2023-01-02T00:33:21.000Z,10.74
2023-01-02T00:34:21.000Z,10.75
2023-01-02T00:35:21.000Z,10.75
2023-01-02T00:36:21.000Z,10.77
2023-01-02T00:37:21.000Z,10.77
2023-01-02T00:38:21.000Z,10.78
2023-01-02T00:39:21.000Z,10.81
2023-01-02T00:40:21.000Z,10.84
2023-01-02T00:41:21.000Z,10.82
2023-01-02T00:42:21.000Z,10.88
2023-01-02T00:43:21.000Z,10.85
2023-01-02T00:44:21.000Z,10.85
2023-01-02T00:45:21.000Z,10.85
2023-01-02T00:46:21.000Z,10.87
2023-01-02T00:47:21.000Z,10.85
2023-01-02T00:48:21.000Z,10.88
2023-01-02T00:49:21.000Z,10.88
2023-01-02T00:50:21.000Z,10.88
2023-01-02T00:51:21.000Z,10.88
2023-01-02T00:52:21.000Z,10.90
2023-01-02T00:53:21.000Z,10.90
2023-01-02T00:54:21.000Z,10.88
2023-01-02T00:55:21.000Z,10.91
2023-01-02T00:56:21.000Z,10.90
2023-01-02T00:57:21.000Z,10.91
2023-01-02T00:58:21.000Z,10.90
2023-01-02T00:59:21.000Z,10.92
2023-01-02T01:00:21.000Z,10.90
2023-01-02T01:01:21.000Z,10.91
2023-01-02T01:02:21.000Z,10.92
2023-01-02T01:03:21.000Z,10.92
2023-01-02T01:04:21.000Z,10.90
2023-01-02T01:05:21.000Z,10.90
2023-01-02T01:06:21.000Z,10.91
2023-01-02T01:07:20.000Z,10.91
2023-01-02T01:08:21.000Z,10.90
2023-01-02T01:09:21.000Z,10.90
2023-01-02T01:10:23.000Z,10.87
2023-01-02T01:11:20.000Z,10.87
2023-01-02T01:12:21.000Z,10.88
2023-01-02T01:13:20.000Z,10.90
2023-01-02T01:14:22.000Z,10.85
2023-01-02T01:15:20.000Z,10.87
2023-01-02T01:16:21.000Z,10.88
2023-01-02T01:17:21.000Z,10.85
2023-01-02T01:18:21.000Z,10.90
2023-01-02T01:19:20.000Z,10.87
2023-01-02T01:20:21.000Z,10.90
2023-01-02T01:21:21.000Z,10.88
2023-01-02T01:22:20.000Z,10.92
2023-01-02T01:23:21.000Z,10.87
2023-01-02T01:24:20.000Z,10.87
2023-01-02T01:25:20.000Z,10.88
2023-01-02T01:26:21.000Z,10.87
2023-01-02T01:27:21.000Z,10.88
2023-01-02T01:28:20.000Z,10.87
2023-01-02T01:29:21.000Z,10.84
2023-01-02T01:30:21.000Z,10.84
2023-01-02T01:31:21.000Z,10.87
2023-01-02T01:32:20.000Z,10.84
2023-01-02T01:33:20.000Z,10.87
2023-01-02T01:34:20.000Z,10.88
2023-01-02T01:35:20.000Z,10.87
2023-01-02T01:36:22.000Z,10.87
2023-01-02T01:37:21.000Z,10.85
2023-01-02T01:38:20.000Z,10.88
2023-01-02T01:39:21.000Z,10.88
2023-01-02T01:40:21.000Z,10.88
2023-01-02T01:41:23.000Z,10.90
2023-01-02T01:42:21.000Z,10.90
2023-01-02T01:43:31.000Z,10.92
2023-01-02T01:44:31.000Z,10.94
2023-01-02T01:45:21.000Z,10.92
2023-01-02T01:46:31.000Z,10.94
2023-01-02T01:47:38.000Z,10.94
2023-01-02T01:48:21.000Z,10.95
2023-01-02T01:49:25.000Z,10.94
2023-01-02T01:50:29.000Z,10.95
2023-01-02T01:51:22.000Z,10.96
2023-01-02T01:52:25.000Z,10.94
2023-01-02T01:53:22.000Z,10.96
2023-01-02T01:54:26.000Z,10.92
2023-01-02T01:55:38.000Z,10.92
2023-01-02T01:56:21.000Z,10.95
2023-01-02T01:57:31.000Z,10.95
2023-01-02T01:58:25.000Z,10.94
2023-01-02T01:59:21.000Z,10.95
2023-01-02T02:00:21.000Z,10.96
2023-01-02T02:01:21.000Z,10.94
2023-01-02T02:02:22.000Z,10.95
2023-01-02T02:03:24.000Z,10.98
2023-01-02T02:04:22.000Z,10.94
2023-01-02T02:05:24.000Z,10.94
2023-01-02T02:06:21.000Z,10.92
2023-01-02T02:07:22.000Z,10.94
2023-01-02T02:08:26.000Z,10.92
2023-01-02T02:09:28.000Z,10.94
2023-01-02T02:10:21.000Z,10.91
2023-01-02T02:11:21.000Z,10.94
2023-01-02T02:12:22.000Z,10.94
2023-01-02T02:13:22.000Z,10.91
2023-01-02T02:14:21.000Z,10.91
2023-01-02T02:15:28.000Z,10.92
2023-01-02T02:16:39.000Z,10.90
2023-01-02T02:17:45.000Z,10.90
2023-01-02T02:18:31.000Z,10.91
2023-01-02T02:19:31.000Z,10.88
2023-01-02T02:20:44.000Z,10.92
2023-01-02T02:21:41.000Z,10.94
2023-01-02T02:22:31.000Z,10.92
2023-01-02T02:23:31.000Z,10.92
2023-01-02T02:24:57.000Z,10.92
2023-01-02T02:25:44.000Z,10.95
2023-01-02T02:26:31.000Z,10.95
2023-01-02T02:27:38.000Z,10.95
2023-01-02T02:28:31.000Z,10.96
2023-01-02T02:29:41.000Z,10.95
2023-01-02T02:30:23.000Z,10.96
2023-01-02T02:31:31.000Z,10.94
2023-01-02T02:32:31.000Z,10.98
2023-01-02T02:33:35.000Z,10.95
2023-01-02T02:34:44.000Z,10.96
2023-01-02T02:35:37.000Z,10.98
2023-01-02T02:36:40.000Z,10.96
2023-01-02T02:37:40.000Z,10.99
2023-01-02T02:38:30.000Z,10.99
2023-01-02T02:39:41.000Z,10.98
2023-01-02T02:40:43.000Z,10.99
2023-01-02T02:41:43.000Z,10.99
2023-01-02T02:42:53.000Z,10.98
2023-01-02T02:43:33.000Z,10.96
2023-01-02T02:44:30.000Z,11.01
2023-01-02T02:45:35.000Z,11.02
2023-01-02T02:46:30.000Z,11.02
2023-01-02T02:47:29.000Z,11.02
2023-01-02T02:48:41.000Z,11.05
2023-01-02T02:49:37.000Z,11.03
2023-01-02T02:50:41.000Z,11.02
2023-01-02T02:51:40.000Z,11.02
2023-01-02T02:52:42.000Z,11.02
2023-01-02T02:53:24.000Z,11.02
2023-01-02T02:54:25.000Z,11.03
2023-01-02T02:55:26.000Z,11.05
2023-01-02T02:56:23.000Z,11.02
2023-01-02T02:57:22.000Z,11.01
2023-01-02T02:58:22.000Z,11.01
2023-01-02T02:59:21.000Z,11.05
2023-01-02T03:00:21.000Z,11.01
2023-01-02T03:01:25.000Z,11.03
2023-01-02T03:02:20.000Z,10.99
2023-01-02T03:03:21.000Z,11.02
2023-01-02T03:04:21.000Z,10.99
2023-01-02T03:05:30.000Z,11.01
2023-01-02T03:06:43.000Z,11.01
2023-01-02T03:07:44.000Z,10.99
2023-01-02T03:08:36.000Z,10.98
2023-01-02T03:09:30.000Z,10.98
2023-01-02T03:10:32.000Z,10.99
2023-01-02T03:11:29.000Z,10.98
2023-01-02T03:12:43.000Z,10.98
2023-01-02T03:13:30.000Z,10.96
2023-01-02T03:14:31.000Z,10.95
2023-01-02T03:15:33.000Z,10.94
2023-01-02T03:16:29.000Z,10.95
2023-01-02T03:17:43.000Z,10.94
2023-01-02T03:18:32.000Z,10.92
2023-01-02T03:19:28.000Z,10.90
2023-01-02T03:20:26.000Z,10.94
2023-01-02T03:21:45.000Z,10.92
2023-01-02T03:22:27.000Z,10.92
2023-01-02T03:23:24.000Z,10.92
2023-01-02T03:24:23.000Z,10.90
2023-01-02T03:25:21.000Z,10.91
2023-01-02T03:26:26.000Z,10.92
2023-01-02T03:27:26.000Z,10.88
2023-01-02T03:28:23.000Z,10.88
2023-01-02T03:29:32.000Z,10.91
2023-01-02T03:30:21.000Z,10.91
2023-01-02T03:31:23.000Z,10.90
2023-01-02T03:32:28.000Z,10.88
2023-01-02T03:33:28.000Z,10.90
2023-01-02T03:34:27.000Z,10.91
2023-01-02T03:35:25.000Z,10.90
2023-01-02T03:36:24.000Z,10.87
2023-01-02T03:37:24.000Z,10.91
2023-01-02T03:38:25.000Z,10.90
2023-01-02T03:39:26.000Z,10.87
2023-01-02T03:40:24.000Z,10.87
2023-01-02T03:41:23.000Z,10.90
2023-01-02T03:42:27.000Z,10.88
2023-01-02T03:43:26.000Z,10.88
2023-01-02T03:44:24.000Z,10.90
2023-01-02T03:45:26.000Z,10.90
2023-01-02T03:46:40.000Z,10.90
2023-01-02T03:47:31.000Z,10.88
2023-01-02T03:48:32.000Z,10.91
2023-01-02T03:49:28.000Z,10.90
2023-01-02T03:50:27.000Z,10.91
2023-01-02T03:51:21.000Z,10.91
2023-01-02T03:52:20.000Z,10.91
2023-01-02T03:53:21.000Z,10.92
2023-01-02T03:54:20.000Z,10.91
2023-01-02T03:55:23.000Z,10.90
2023-01-02T03:56:30.000Z,10.90
2023-01-02T03:57:31.000Z,10.90
2023-01-02T03:58:37.000Z,10.92
2023-01-02T03:59:42.000Z,10.90
2023-01-02T04:00:21.000Z,10.90
2023-01-02T04:01:32.000Z,10.91
2023-01-02T04:02:43.000Z,10.91
2023-01-02T04:03:29.000Z,10.92
2023-01-02T04:04:34.000Z,10.90
2023-01-02T04:05:34.000Z,10.91
2023-01-02T04:06:30.000Z,10.92
2023-01-02T04:07:36.000Z,10.91
2023-01-02T04:08:29.000Z,10.88
2023-01-02T04:09:24.000Z,10.88
2023-01-02T04:10:22.000Z,10.88
2023-01-02T04:11:25.000Z,10.87
2023-01-02T04:12:24.000Z,10.87
2023-01-02T04:13:28.000Z,10.87
2023-01-02T04:14:28.000Z,10.87
2023-01-02T04:15:25.000Z,10.87
2023-01-02T04:16:24.000Z,10.85
2023-01-02T04:17:24.000Z,10.88
2023-01-02T04:18:28.000Z,10.84
2023-01-02T04:19:25.000Z,10.85
2023-01-02T04:20:28.000Z,10.84
2023-01-02T04:21:25.000Z,10.85
2023-01-02T04:22:28.000Z,10.85
2023-01-02T04:23:31.000Z,10.85
2023-01-02T04:24:27.000Z,10.85
2023-01-02T04:25:27.000Z,10.81
2023-01-02T04:26:30.000Z,10.84
2023-01-02T04:27:30.000Z,10.84
2023-01-02T04:28:25.000Z,10.82
2023-01-02T04:29:21.000Z,10.84
2023-01-02T04:30:21.000Z,10.82
2023-01-02T04:31:31.000Z,10.84
2023-01-02T04:32:27.000Z,10.81
2023-01-02T04:33:23.000Z,10.81
2023-01-02T04:34:24.000Z,10.82
2023-01-02T04:35:23.000Z,10.81
2023-01-02T04:36:22.000Z,10.80
2023-01-02T04:37:29.000Z,10.82
2023-01-02T04:38:21.000Z,10.82
2023-01-02T04:39:23.000Z,10.85
2023-01-02T04:40:27.000Z,10.87
2023-01-02T04:41:25.000Z,10.81
2023-01-02T04:42:21.000Z,10.81
2023-01-02T04:43:21.000Z,10.80
2023-01-02T04:44:21.000Z,10.81
2023-01-02T04:45:21.000Z,10.81
2023-01-02T04:46:23.000Z,10.78
2023-01-02T04:47:21.000Z,10.80
2023-01-02T04:48:21.000Z,10.81
2023-01-02T04:49:22.000Z,10.78
2023-01-02T04:50:21.000Z,10.77
2023-01-02T04:51:22.000Z,10.77
2023-01-02T04:52:21.000Z,10.78
2023-01-02T04:53:21.000Z,10.80
2023-01-02T04:54:21.000Z,10.77
2023-01-02T04:55:21.000Z,10.75
2023-01-02T04:56:21.000Z,10.75
2023-01-02T04:57:21.000Z,10.72
2023-01-02T04:58:21.000Z,10.72
2023-01-02T04:59:21.000Z,10.75
2023-01-02T05:00:21.000Z,10.71
2023-01-02T05:01:21.000Z,10.75
2023-01-02T05:02:21.000Z,10.74
2023-01-02T05:03:21.000Z,10.72
2023-01-02T05:04:21.000Z,10.72
2023-01-02T05:05:21.000Z,10.70
2023-01-02T05:06:21.000Z,10.68
2023-01-02T05:07:21.000Z,10.71
2023-01-02T05:08:21.000Z,10.67
2023-01-02T05:09:21.000Z,10.70
2023-01-02T05:10:21.000Z,10.70
2023-01-02T05:11:21.000Z,10.70
2023-01-02T05:12:20.000Z,10.67
2023-01-02T05:13:21.000Z,10.65
2023-01-02T05:14:20.000Z,10.68
2023-01-02T05:15:21.000Z,10.65
2023-01-02T05:16:21.000Z,10.65
2023-01-02T05:17:21.000Z,10.67
2023-01-02T05:18:21.000Z,10.64
2023-01-02T05:19:21.000Z,10.65
2023-01-02T05:20:20.000Z,10.64
2023-01-02T05:21:26.000Z,10.63
2023-01-02T05:22:26.000Z,10.60
2023-01-02T05:23:26.000Z,10.65
2023-01-02T05:24:21.000Z,10.60
2023-01-02T05:25:20.000Z,10.61
2023-01-02T05:26:21.000Z,10.63
2023-01-02T05:27:21.000Z,10.61
2023-01-02T05:28:21.000Z,10.60
2023-01-02T05:29:21.000Z,10.61
2023-01-02T05:30:21.000Z,10.60
2023-01-02T05:31:21.000Z,10.57
2023-01-02T05:32:21.000Z,10.57
2023-01-02T05:33:20.000Z,10.57
2023-01-02T05:34:20.000Z,10.57
2023-01-02T05:35:21.000Z,10.57
2023-01-02T05:36:22.000Z,10.56
2023-01-02T05:37:21.000Z,10.53
2023-01-02T05:38:21.000Z,10.54
2023-01-02T05:39:20.000Z,10.51
2023-01-02T05:40:21.000Z,10.51
2023-01-02T05:41:21.000Z,10.50
2023-01-02T05:42:20.000Z,10.50
2023-01-02T05:43:20.000Z,10.48
2023-01-02T05:44:21.000Z,10.48
2023-01-02T05:45:21.000Z,10.45
2023-01-02T05:46:20.000Z,10.44
2023-01-02T05:47:21.000Z,10.44
2023-01-02T05:48:20.000Z,10.41
2023-01-02T05:49:20.000Z,10.41
2023-01-02T05:50:21.000Z,10.40
2023-01-02T05:51:21.000Z,10.41
2023-01-02T05:52:21.000Z,10.40
2023-01-02T05:53:20.000Z,10.39
2023-01-02T05:54:21.000Z,10.41
2023-01-02T05:55:21.000Z,10.40
2023-01-02T05:56:21.000Z,10.40
2023-01-02T05:57:20.000Z,10.39
2023-01-02T05:58:20.000Z,10.37
2023-01-02T05:59:21.000Z,10.37
2023-01-02T06:00:20.000Z,10.36
2023-01-02T06:01:24.000Z,10.36
2023-01-02T06:02:20.000Z,10.36
2023-01-02T06:03:21.000Z,10.33
2023-01-02T06:04:21.000Z,10.30
2023-01-02T06:05:20.000Z,10.29
2023-01-02T06:06:25.000Z,10.27
2023-01-02T06:07:21.000Z,10.27
2023-01-02T06:08:20.000Z,10.26
2023-01-02T06:09:21.000Z,10.23
2023-01-02T06:10:20.000Z,10.24
2023-01-02T06:11:21.000Z,10.26
2023-01-02T06:12:20.000Z,10.24
2023-01-02T06:13:21.000Z,10.24
2023-01-02T06:14:22.000Z,10.23
2023-01-02T06:15:21.000Z,10.23
2023-01-02T06:16:22.000Z,10.22
2023-01-02T06:17:21.000Z,10.23
2023-01-02T06:18:21.000Z,10.20
2023-01-02T06:19:21.000Z,10.19
2023-01-02T06:20:21.000Z,10.19
2023-01-02T06:21:21.000Z,10.19
2023-01-02T06:22:20.000Z,10.13
2023-01-02T06:23:20.000Z,10.10
2023-01-02T06:24:20.000Z,10.09
2023-01-02T06:25:20.000Z,10.08
2023-01-02T06:26:23.000Z,10.06
2023-01-02T06:27:21.000Z,10.03
2023-01-02T06:28:21.000Z,10.02
2023-01-02T06:29:21.000Z,9.98
2023-01-02T06:30:20.000Z,9.98
2023-01-02T06:31:23.000Z,10.02
2023-01-02T06:32:20.000Z,9.99
2023-01-02T06:33:20.000Z,9.98
2023-01-02T06:34:20.000Z,9.98
2023-01-02T06:35:21.000Z,9.96
2023-01-02T06:36:21.000Z,9.98
2023-01-02T06:37:21.000Z,9.95
2023-01-02T06:38:20.000Z,9.95
2023-01-02T06:39:21.000Z,9.96
2023-01-02T06:40:20.000Z,9.95
2023-01-02T06:41:20.000Z,9.93
2023-01-02T06:42:20.000Z,9.95
2023-01-02T06:43:21.000Z,9.92
2023-01-02T06:44:21.000Z,9.91
2023-01-02T06:45:22.000Z,9.93
2023-01-02T06:46:22.000Z,9.92
2023-01-02T06:47:20.000Z,9.93
2023-01-02T06:48:20.000Z,9.91
2023-01-02T06:49:20.000Z,9.92
2023-01-02T06:50:21.000Z,9.92
2023-01-02T06:51:22.000Z,9.89
2023-01-02T06:52:20.000Z,9.88
2023-01-02T06:53:21.000Z,9.88
2023-01-02T06:54:20.000Z,9.86
2023-01-02T06:55:21.000Z,9.88
2023-01-02T06:56:21.000Z,9.82
2023-01-02T06:57:21.000Z,9.88
2023-01-02T06:58:21.000Z,9.88
2023-01-02T06:59:21.000Z,9.81
2023-01-02T07:00:21.000Z,9.86
2023-01-02T07:01:21.000Z,9.82
2023-01-02T07:02:20.000Z,9.85
2023-01-02T07:03:20.000Z,9.84
2023-01-02T07:04:21.000Z,9.84
2023-01-02T07:05:20.000Z,9.84
2023-01-02T07:06:21.000Z,9.84
2023-01-02T07:07:21.000Z,9.82
2023-01-02T07:08:20.000Z,9.85
2023-01-02T07:09:20.000Z,9.82
2023-01-02T07:10:21.000Z,9.81
2023-01-02T07:11:23.000Z,9.80
2023-01-02T07:12:20.000Z,9.80
2023-01-02T07:13:21.000Z,9.85
2023-01-02T07:14:20.000Z,9.85
2023-01-02T07:15:21.000Z,9.86
2023-01-02T07:16:22.000Z,9.85
2023-01-02T07:17:20.000Z,9.86
2023-01-02T07:18:20.000Z,9.86
2023-01-02T07:19:20.000Z,9.86
2023-01-02T07:20:21.000Z,9.91
2023-01-02T07:21:21.000Z,9.91
2023-01-02T07:22:21.000Z,9.91
2023-01-02T07:23:20.000Z,9.91
2023-01-02T07:24:21.000Z,9.91
2023-01-02T07:25:21.000Z,9.92
2023-01-02T07:26:21.000Z,9.92
2023-01-02T07:27:21.000Z,9.93
2023-01-02T07:28:21.000Z,9.93
2023-01-02T07:29:21.000Z,9.93
2023-01-02T07:30:20.000Z,9.92
2023-01-02T07:31:21.000Z,9.93
2023-01-02T07:32:21.000Z,9.95
2023-01-02T07:33:21.000Z,9.93
2023-01-02T07:34:20.000Z,9.95
2023-01-02T07:35:20.000Z,9.93
2023-01-02T07:36:24.000Z,9.93
2023-01-02T07:37:21.000Z,9.92
2023-01-02T07:38:21.000Z,9.95
2023-01-02T07:39:21.000Z,9.96
2023-01-02T07:40:20.000Z,9.98
2023-01-02T07:41:23.000Z,9.99
2023-01-02T07:42:21.000Z,9.95
2023-01-02T07:43:21.000Z,9.96
2023-01-02T07:44:21.000Z,9.96
2023-01-02T07:45:20.000Z,9.96
2023-01-02T07:46:21.000Z,9.98
2023-01-02T07:47:21.000Z,9.93
2023-01-02T07:48:20.000Z,9.96
2023-01-02T07:49:21.000Z,9.93
2023-01-02T07:50:20.000Z,9.96
2023-01-02T07:51:21.000Z,9.96
2023-01-02T07:52:21.000Z,9.96
2023-01-02T07:53:20.000Z,9.95
2023-01-02T07:54:20.000Z,9.95
2023-01-02T07:55:21.000Z,9.96
2023-01-02T07:56:20.000Z,9.99
2023-01-02T07:57:20.000Z,9.98
2023-01-02T07:58:21.000Z,9.98
2023-01-02T07:59:21.000Z,9.99
2023-01-02T08:00:21.000Z,9.96
2023-01-02T08:01:21.000Z,9.95
2023-01-02T08:02:21.000Z,9.95
2023-01-02T08:03:21.000Z,9.93
2023-01-02T08:04:21.000Z,9.92
2023-01-02T08:05:21.000Z,9.92
2023-01-02T08:06:21.000Z,9.92
2023-01-02T08:07:22.000Z,9.92
2023-01-02T08:08:20.000Z,9.95
2023-01-02T08:09:20.000Z,9.92
2023-01-02T08:10:21.000Z,9.92
2023-01-02T08:11:21.000Z,9.91
2023-01-02T08:12:20.000Z,9.91
2023-01-02T08:13:20.000Z,9.92
2023-01-02T08:14:21.000Z,9.92
2023-01-02T08:15:20.000Z,9.91
2023-01-02T08:16:21.000Z,9.89
2023-01-02T08:17:20.000Z,9.92
2023-01-02T08:18:21.000Z,9.96
2023-01-02T08:19:21.000Z,9.98
2023-01-02T08:20:21.000Z,9.98
2023-01-02T08:21:24.000Z,9.98
2023-01-02T08:22:21.000Z,9.95
2023-01-02T08:23:20.000Z,9.96
2023-01-02T08:24:21.000Z,9.98
2023-01-02T08:25:20.000Z,9.98
2023-01-02T08:26:22.000Z,9.96
2023-01-02T08:27:20.000Z,9.95
2023-01-02T08:28:20.000Z,9.95
2023-01-02T08:29:21.000Z,9.93
2023-01-02T08:30:21.000Z,9.96
2023-01-02T08:31:21.000Z,9.95
2023-01-02T08:32:21.000Z,9.95
2023-01-02T08:33:21.000Z,9.98
2023-01-02T08:34:21.000Z,9.99
2023-01-02T08:35:21.000Z,9.99
2023-01-02T08:36:21.000Z,9.99
2023-01-02T08:37:21.000Z,9.98
2023-01-02T08:38:21.000Z,9.96
2023-01-02T08:39:21.000Z,9.99
2023-01-02T08:40:21.000Z,10.02
2023-01-02T08:41:44.000Z,10.02
2023-01-02T08:42:20.000Z,10.03
2023-01-02T08:43:20.000Z,10.05
2023-01-02T08:44:20.000Z,10.01
2023-01-02T08:45:21.000Z,10.03
2023-01-02T08:46:21.000Z,10.06
2023-01-02T08:47:21.000Z,10.02
2023-01-02T08:48:21.000Z,10.05
2023-01-02T08:49:21.000Z,10.08
2023-01-02T08:50:21.000Z,10.05
2023-01-02T08:51:21.000Z,10.06
2023-01-02T08:52:21.000Z,10.06
2023-01-02T08:53:21.000Z,10.09
2023-01-02T08:54:21.000Z,10.10
2023-01-02T08:55:21.000Z,10.13
2023-01-02T08:56:27.000Z,10.14
2023-01-02T08:57:21.000Z,10.14
2023-01-02T08:58:21.000Z,10.17
2023-01-02T08:59:22.000Z,10.20
2023-01-02T09:00:21.000Z,10.19
2023-01-02T09:01:23.000Z,10.20
2023-01-02T09:02:21.000Z,10.26
2023-01-02T09:03:21.000Z,10.24
2023-01-02T09:04:21.000Z,10.29
2023-01-02T09:05:21.000Z,10.32
2023-01-02T09:06:22.000Z,10.33
2023-01-02T09:07:21.000Z,10.36
2023-01-02T09:08:21.000Z,10.37
2023-01-02T09:09:21.000Z,10.39
2023-01-02T09:10:21.000Z,10.40
2023-01-02T09:11:32.000Z,10.40
2023-01-02T09:12:21.000Z,10.44
2023-01-02T09:13:21.000Z,10.43
2023-01-02T09:14:21.000Z,10.41
2023-01-02T09:15:20.000Z,10.48
2023-01-02T09:16:21.000Z,10.50
2023-01-02T09:17:20.000Z,10.50
2023-01-02T09:18:20.000Z,10.51
2023-01-02T09:19:20.000Z,10.53
2023-01-02T09:20:20.000Z,10.56
2023-01-02T09:21:20.000Z,10.56
2023-01-02T09:22:20.000Z,10.57
2023-01-02T09:23:20.000Z,10.61
2023-01-02T09:24:20.000Z,10.61
2023-01-02T09:25:20.000Z,10.64
2023-01-02T09:26:20.000Z,10.63
2023-01-02T09:27:20.000Z,10.71
2023-01-02T09:28:20.000Z,10.70
2023-01-02T09:29:20.000Z,10.74
2023-01-02T09:30:20.000Z,10.75
2023-01-02T09:31:21.000Z,10.85
2023-01-02T09:32:20.000Z,10.85
2023-01-02T09:33:21.000Z,10.84
2023-01-02T09:34:20.000Z,10.95
2023-01-02T09:35:21.000Z,10.94
2023-01-02T09:36:21.000Z,10.98
2023-01-02T09:37:20.000Z,11.02
2023-01-02T09:38:20.000Z,11.06
2023-01-02T09:39:20.000Z,11.09
2023-01-02T09:40:22.000Z,11.13
2023-01-02T09:41:33.000Z,11.13
2023-01-02T09:42:21.000Z,11.18
2023-01-02T09:43:30.000Z,11.22
2023-01-02T09:44:44.000Z,11.22
2023-01-02T09:45:21.000Z,11.25
2023-01-02T09:46:31.000Z,11.25
2023-01-02T09:47:24.000Z,11.27
2023-01-02T09:48:21.000Z,11.32
2023-01-02T09:49:24.000Z,11.32
2023-01-02T09:50:25.000Z,11.35
2023-01-02T09:51:21.000Z,11.35
2023-01-02T09:52:25.000Z,11.33
2023-01-02T09:53:20.000Z,11.38
2023-01-02T09:54:27.000Z,11.39
2023-01-02T09:55:31.000Z,11.39
2023-01-02T09:56:31.000Z,11.39
2023-01-02T09:57:33.000Z,11.45
2023-01-02T09:58:46.000Z,11.45
2023-01-02T09:59:30.000Z,11.45
2023-01-02T10:00:22.000Z,11.49
2023-01-02T10:01:31.000Z,11.52
2023-01-02T10:02:43.000Z,11.50
2023-01-02T10:03:32.000Z,11.52
2023-01-02T10:04:37.000Z,11.53
2023-01-02T10:05:51.000Z,11.56
2023-01-02T10:06:27.000Z,11.57
2023-01-02T10:07:31.000Z,11.64
2023-01-02T10:08:30.000Z,11.63
2023-01-02T10:09:34.000Z,11.63
2023-01-02T10:10:32.000Z,11.66
2023-01-02T10:11:31.000Z,11.67
2023-01-02T10:12:30.000Z,11.67
2023-01-02T10:13:27.000Z,11.73
2023-01-02T10:14:44.000Z,11.73
2023-01-02T10:15:26.000Z,11.77
2023-01-02T10:16:26.000Z,11.77
2023-01-02T10:17:23.000Z,11.80
2023-01-02T10:18:33.000Z,11.83
2023-01-02T10:19:36.000Z,11.90
2023-01-02T10:20:25.000Z,11.98
2023-01-02T10:21:28.000Z,12.01
2023-01-02T10:22:32.000Z,12.08
2023-01-02T10:23:26.000Z,12.17
2023-01-02T10:24:32.000Z,12.14
2023-01-02T10:25:27.000Z,12.17
2023-01-02T10:26:25.000Z,12.24
2023-01-02T10:27:28.000Z,12.29
2023-01-02T10:28:32.000Z,12.36
2023-01-02T10:29:27.000Z,12.48
2023-01-02T10:30:23.000Z,12.46
2023-01-02T10:31:29.000Z,12.52
2023-01-02T10:32:21.000Z,12.55
2023-01-02T10:33:29.000Z,12.53
2023-01-02T10:34:21.000Z,12.60
2023-01-02T10:35:30.000Z,12.69
2023-01-02T10:36:30.000Z,12.66
2023-01-02T10:37:20.000Z,12.67
2023-01-02T10:38:21.000Z,12.67
2023-01-02T10:39:32.000Z,12.79
2023-01-02T10:40:21.000Z,12.86
2023-01-02T10:41:20.000Z,12.83
2023-01-02T10:42:21.000Z,12.84
2023-01-02T10:43:20.000Z,12.83
2023-01-02T10:44:31.000Z,12.91
2023-01-02T10:45:20.000Z,12.93
2023-01-02T10:46:20.000Z,12.91
2023-01-02T10:47:31.000Z,12.90
2023-01-02T10:48:25.000Z,12.90
2023-01-02T10:49:24.000Z,12.91
2023-01-02T10:50:25.000Z,12.90
2023-01-02T10:51:20.000Z,12.93
2023-01-02T10:52:28.000Z,12.96
2023-01-02T10:53:36.000Z,13.01
2023-01-02T10:54:20.000Z,13.04
2023-01-02T10:55:30.000Z,13.04
2023-01-02T10:56:20.000Z,13.03
2023-01-02T10:57:30.000Z,13.07
2023-01-02T10:58:26.000Z,13.06
2023-01-02T10:59:24.000Z,13.10
2023-01-02T11:00:27.000Z,13.14
2023-01-02T11:01:21.000Z,13.13
2023-01-02T11:02:29.000Z,13.13
2023-01-02T11:03:23.000Z,13.17
2023-01-02T11:04:24.000Z,13.22
2023-01-02T11:05:24.000Z,13.22
2023-01-02T11:06:26.000Z,13.27
2023-01-02T11:07:25.000Z,13.27
2023-01-02T11:08:32.000Z,13.30
2023-01-02T11:09:32.000Z,13.30
2023-01-02T11:10:27.000Z,13.30
2023-01-02T11:11:22.000Z,13.37
2023-01-02T11:12:20.000Z,13.52
2023-01-02T11:13:20.000Z,13.46
2023-01-02T11:14:25.000Z,13.46
2023-01-02T11:15:27.000Z,13.42
2023-01-02T11:16:23.000Z,13.38
2023-01-02T11:17:22.000Z,13.39
2023-01-02T11:18:32.000Z,13.48
2023-01-02T11:19:21.000Z,13.53
2023-01-02T11:20:28.000Z,13.58
2023-01-02T11:21:27.000Z,13.63
2023-01-02T11:22:31.000Z,13.68
2023-01-02T11:23:24.000Z,13.75
2023-01-02T11:24:24.000Z,13.85
2023-01-02T11:25:24.000Z,13.86
2023-01-02T11:26:23.000Z,13.90
2023-01-02T11:27:21.000Z,13.93
2023-01-02T11:28:27.000Z,13.93
2023-01-02T11:29:40.000Z,14.00
2023-01-02T11:30:33.000Z,14.01
2023-01-02T11:31:21.000Z,14.04
2023-01-02T11:32:25.000Z,14.10
2023-01-02T11:33:30.000Z,14.11
2023-01-02T11:34:24.000Z,14.16
2023-01-02T11:35:30.000Z,14.20
2023-01-02T11:36:21.000Z,14.27
2023-01-02T11:37:20.000Z,14.34
2023-01-02T11:38:24.000Z,14.44
2023-01-02T11:39:22.000Z,14.48
2023-01-02T11:40:27.000Z,14.57
2023-01-02T11:41:38.000Z,14.57
2023-01-02T11:42:34.000Z,14.55
2023-01-02T11:43:36.000Z,14.58
2023-01-02T11:44:35.000Z,14.61
2023-01-02T11:45:21.000Z,14.61
2023-01-02T11:46:30.000Z,14.61
2023-01-02T11:47:31.000Z,14.65
2023-01-02T11:48:22.000Z,14.64
2023-01-02T11:49:28.000Z,14.67
2023-01-02T11:50:31.000Z,14.68
2023-01-02T11:51:20.000Z,14.68
2023-01-02T11:52:28.000Z,14.64
2023-01-02T11:53:27.000Z,14.75
2023-01-02T11:54:27.000Z,14.75
2023-01-02T11:55:30.000Z,14.79
2023-01-02T11:56:28.000Z,14.79
2023-01-02T11:57:43.000Z,14.83
2023-01-02T11:58:32.000Z,14.92
2023-01-02T11:59:30.000Z,14.92
2023-01-02T12:00:23.000Z,15.02
2023-01-02T12:01:28.000Z,15.02
2023-01-02T12:02:30.000Z,15.06
2023-01-02T12:03:22.000Z,15.07
2023-01-02T12:04:21.000Z,15.14
2023-01-02T12:05:43.000Z,15.13
2023-01-02T12:06:36.000Z,15.16
2023-01-02T12:07:40.000Z,15.17
2023-01-02T12:08:32.000Z,15.29
2023-01-02T12:09:30.000Z,15.27
2023-01-02T12:10:35.000Z,15.31
2023-01-02T12:11:30.000Z,15.30
2023-01-02T12:12:30.000Z,15.30
2023-01-02T12:13:30.000Z,15.31
2023-01-02T12:14:44.000Z,15.44
2023-01-02T12:15:38.000Z,15.44
2023-01-02T12:16:30.000Z,15.39
2023-01-02T12:17:37.000Z,15.43
2023-01-02T12:18:43.000Z,15.40
2023-01-02T12:19:38.000Z,15.39
2023-01-02T12:20:30.000Z,15.53
2023-01-02T12:21:31.000Z,15.50
2023-01-02T12:22:40.000Z,15.41
2023-01-02T12:23:30.000Z,15.41
2023-01-02T12:24:30.000Z,15.37
2023-01-02T12:25:30.000Z,15.40
2023-01-02T12:26:29.000Z,15.40
2023-01-02T12:27:30.000Z,15.36
2023-01-02T12:28:38.000Z,15.36
2023-01-02T12:29:40.000Z,15.34
2023-01-02T12:30:21.000Z,15.33
2023-01-02T12:31:39.000Z,15.30
2023-01-02T12:32:43.000Z,15.29
2023-01-02T12:33:37.000Z,15.31
2023-01-02T12:34:30.000Z,15.29
2023-01-02T12:35:40.000Z,15.24
2023-01-02T12:36:36.000Z,15.26
2023-01-02T12:37:32.000Z,15.24
2023-01-02T12:38:31.000Z,15.30
2023-01-02T12:39:30.000Z,15.33
2023-01-02T12:40:30.000Z,15.31
2023-01-02T12:41:29.000Z,15.34
2023-01-02T12:42:37.000Z,15.33
2023-01-02T12:43:43.000Z,15.36
2023-01-02T12:44:41.000Z,15.39
2023-01-02T12:45:35.000Z,15.40
2023-01-02T12:46:30.000Z,15.36
2023-01-02T12:47:31.000Z,15.40
2023-01-02T12:48:40.000Z,15.37
2023-01-02T12:49:40.000Z,15.34
2023-01-02T12:50:30.000Z,15.33
2023-01-02T12:51:29.000Z,15.31
2023-01-02T12:52:35.000Z,15.29
2023-01-02T12:53:40.000Z,15.26
2023-01-02T12:54:40.000Z,15.26
2023-01-02T12:55:35.000Z,15.21
2023-01-02T12:56:42.000Z,15.21